createdAt,value
2023-03-11T00:00:48.862Z,42.33
2023-03-11T00:03:52.907Z,44.30
2023-03-11T00:06:57.428Z,40.25
2023-03-11T00:10:01.634Z,41.33
2023-03-11T00:13:08.480Z,41.85
2023-03-11T00:16:12.659Z,37.88
2023-03-11T00:19:16.939Z,38.42
2023-03-11T00:22:21.127Z,44.83
2023-03-11T00:25:29.653Z,39.25
2023-03-11T00:28:34.588Z,41.88
2023-03-11T00:31:38.944Z,42.47
2023-03-11T00:34:43.619Z,37.95
2023-03-11T00:37:48.994Z,45.40
2023-03-11T00:40:53.288Z,38.22
2023-03-11T00:43:57.567Z,38.30
2023-03-11T00:47:02.107Z,43.47
2023-03-11T00:50:08.302Z,45.00
2023-03-11T00:53:13.029Z,42.00
2023-03-11T00:56:17.176Z,36.95
2023-03-11T00:59:22.257Z,41.42
2023-03-11T01:02:26.892Z,42.90
2023-03-11T01:05:33.640Z,40.78
2023-03-11T01:08:38.388Z,37.25
2023-03-11T01:11:43.190Z,39.88
2023-03-11T01:14:47.377Z,43.35
2023-03-11T01:17:51.373Z,40.92
2023-03-11T01:20:55.992Z,41.67
2023-03-11T01:24:00.450Z,39.05
2023-03-11T01:27:04.843Z,35.67
2023-03-11T01:30:13.468Z,39.70
2023-03-11T01:33:19.411Z,38.67
2023-03-11T01:36:23.999Z,40.65
2023-03-11T01:39:28.207Z,39.50
2023-03-11T01:42:32.488Z,38.08
2023-03-11T01:45:50.093Z,38.10
2023-03-11T01:48:56.803Z,37.83
2023-03-11T01:52:07.853Z,36.55
2023-03-11T01:55:15.138Z,34.70
2023-03-11T01:58:26.988Z,34.55
2023-03-11T02:01:31.927Z,32.92
2023-03-11T02:04:37.977Z,34.80
2023-03-11T02:07:42.448Z,29.73
2023-03-11T02:10:48.405Z,34.38
2023-03-11T02:13:58.492Z,33.17
2023-03-11T02:17:03.211Z,33.25
2023-03-11T02:20:31.845Z,31.35
2023-03-11T02:24:16.665Z,28.35
2023-03-11T02:27:22.526Z,28.20
2023-03-11T02:30:28.395Z,32.08
2023-03-11T02:33:36.627Z,29.80
2023-03-11T02:36:43.206Z,27.85
2023-03-11T02:39:52.414Z,27.20
2023-03-11T02:43:05.977Z,29.15
2023-03-11T02:46:12.499Z,29.52
2023-03-11T02:49:18.022Z,27.92
2023-03-11T02:52:25.375Z,26.90
2023-03-11T02:55:30.135Z,24.98
2023-03-11T02:58:34.420Z,25.55
2023-03-11T03:01:38.995Z,22.35
2023-03-11T03:04:43.329Z,24.38
2023-03-11T03:07:48.880Z,25.83
2023-03-11T03:10:53.627Z,27.42
2023-03-11T03:13:57.924Z,25.65
2023-03-11T03:17:02.551Z,25.45
2023-03-11T03:20:11.646Z,25.00
2023-03-11T03:23:16.256Z,20.42
2023-03-11T03:26:20.942Z,20.77
2023-03-11T03:29:25.192Z,21.17
2023-03-11T03:32:29.472Z,25.13
2023-03-11T03:35:34.476Z,27.25
2023-03-11T03:38:39.064Z,22.77
2023-03-11T03:41:43.584Z,19.48
2023-03-11T03:44:48.147Z,27.05
2023-03-11T03:47:52.274Z,22.80
2023-03-11T03:50:57.353Z,20.63
2023-03-11T03:54:01.530Z,22.00
2023-03-11T03:57:06.224Z,22.60
2023-03-11T04:00:13.260Z,23.85
2023-03-11T04:03:17.868Z,24.00
2023-03-11T04:06:27.708Z,24.30
2023-03-11T04:09:33.677Z,26.23
2023-03-11T04:12:38.217Z,25.48
2023-03-11T04:15:42.261Z,26.73
2023-03-11T04:18:47.067Z,24.58
2023-03-11T04:21:51.978Z,24.60
2023-03-11T04:24:56.538Z,25.88
2023-03-11T04:28:01.216Z,26.15
2023-03-11T04:31:05.867Z,30.00
2023-03-11T04:34:10.376Z,24.77
2023-03-11T04:37:14.520Z,30.15
2023-03-11T04:40:18.981Z,29.98
2023-03-11T04:43:23.257Z,28.77
2023-03-11T04:46:27.738Z,29.80
2023-03-11T04:49:31.947Z,30.40
2023-03-11T04:52:36.345Z,30.83
2023-03-11T04:55:41.467Z,31.23
2023-03-11T04:58:45.990Z,27.13
2023-03-11T05:01:50.591Z,30.77
2023-03-11T05:04:54.925Z,31.65
2023-03-11T05:07:59.191Z,33.60
2023-03-11T05:11:04.210Z,34.03
2023-03-11T05:14:08.604Z,28.50
2023-03-11T05:17:14.820Z,30.55
2023-03-11T05:20:19.468Z,25.70
2023-03-11T05:23:23.705Z,30.35
2023-03-11T05:26:27.856Z,30.67
2023-03-11T05:29:32.531Z,30.00
2023-03-11T05:32:36.866Z,30.70
2023-03-11T05:35:42.894Z,30.10
2023-03-11T05:38:47.249Z,32.80
2023-03-11T05:41:51.365Z,32.42
2023-03-11T05:44:55.734Z,31.83
2023-03-11T05:48:00.260Z,28.35
2023-03-11T05:51:11.688Z,29.42
2023-03-11T05:54:17.118Z,26.52
2023-03-11T05:57:21.713Z,27.10
2023-03-11T06:00:29.049Z,29.55
2023-03-11T06:03:33.293Z,32.45
2023-03-11T06:06:41.556Z,34.67
2023-03-11T06:09:45.580Z,28.35
2023-03-11T06:12:50.153Z,25.48
2023-03-11T06:15:54.835Z,24.83
2023-03-11T06:19:02.489Z,27.25
2023-03-11T06:22:07.100Z,29.48
2023-03-11T06:25:12.884Z,27.35
2023-03-11T06:28:17.680Z,25.33
2023-03-11T06:31:26.912Z,22.30
2023-03-11T06:34:30.965Z,28.30
2023-03-11T06:37:37.435Z,26.85
2023-03-11T06:40:41.928Z,23.35
2023-03-11T06:43:46.666Z,30.15
2023-03-11T06:46:51.338Z,30.95
2023-03-11T06:49:55.517Z,25.88
2023-03-11T06:52:59.870Z,25.65
2023-03-11T06:56:09.263Z,25.23
2023-03-11T06:59:15.443Z,21.13
2023-03-11T07:02:19.783Z,22.38
2023-03-11T07:05:24.370Z,23.35
2023-03-11T07:08:29.183Z,22.40
2023-03-11T07:11:33.975Z,24.63
2023-03-11T07:14:38.097Z,18.05
2023-03-11T07:17:42.266Z,22.25
2023-03-11T07:20:46.515Z,23.35
2023-03-11T07:24:00.123Z,20.77
2023-03-11T07:27:04.653Z,20.35
2023-03-11T07:30:10.263Z,23.77
2023-03-11T07:33:15.916Z,22.88
2023-03-11T07:36:24.404Z,23.40
2023-03-11T07:39:29.067Z,19.08
2023-03-11T07:42:34.840Z,22.23
2023-03-11T07:45:39.323Z,22.05
2023-03-11T07:48:43.755Z,23.77
2023-03-11T07:51:48.321Z,17.80
2023-03-11T07:54:52.655Z,18.63
2023-03-11T07:57:57.010Z,18.15
2023-03-11T08:01:16.290Z,18.40
2023-03-11T08:04:20.682Z,14.32
2023-03-11T08:07:25.136Z,15.93
2023-03-11T08:10:29.749Z,17.83
2023-03-11T08:13:35.069Z,16.77
2023-03-11T08:16:40.628Z,14.52
2023-03-11T08:19:45.218Z,15.15
2023-03-11T08:22:58.087Z,11.82
2023-03-11T08:26:12.344Z,11.57
2023-03-11T08:29:16.544Z,11.50
2023-03-11T08:32:20.947Z,13.25
2023-03-11T08:35:26.904Z,10.77
2023-03-11T08:38:31.643Z,15.07
2023-03-11T08:41:35.897Z,14.82
2023-03-11T08:44:40.139Z,11.82
2023-03-11T08:47:44.588Z,12.15
2023-03-11T08:50:54.285Z,12.00
2023-03-11T08:54:00.569Z,14.82
2023-03-11T08:57:05.200Z,10.02
2023-03-11T09:00:13.233Z,7.20
2023-03-11T09:03:18.023Z,7.45
2023-03-11T09:06:22.844Z,9.52
2023-03-11T09:09:27.323Z,10.27
2023-03-11T09:12:31.681Z,8.18
2023-03-11T09:15:36.524Z,10.57
2023-03-11T09:18:41.732Z,6.93
2023-03-11T09:21:47.344Z,8.85
2023-03-11T09:24:53.110Z,7.40
2023-03-11T09:27:57.667Z,10.02
2023-03-11T09:31:02.298Z,7.10
2023-03-11T09:34:07.873Z,12.68
2023-03-11T09:37:13.247Z,5.20
2023-03-11T09:40:22.110Z,9.18
2023-03-11T09:44:07.894Z,8.52
2023-03-11T09:47:29.492Z,7.65
2023-03-11T09:50:44.379Z,10.30
2023-03-11T09:54:05.158Z,9.45
2023-03-11T09:57:39.707Z,11.07
2023-03-11T10:00:45.479Z,10.63
2023-03-11T10:03:56.827Z,7.30
2023-03-11T10:07:09.669Z,8.18
2023-03-11T10:10:17.763Z,4.38
2023-03-11T10:13:52.482Z,10.13
2023-03-11T10:17:48.375Z,9.65
2023-03-11T10:21:03.376Z,10.98
2023-03-11T10:24:20.125Z,6.75
2023-03-11T10:28:06.104Z,4.43
2023-03-11T10:31:25.012Z,4.28
2023-03-11T10:35:29.741Z,9.38
2023-03-11T10:38:42.647Z,6.78
2023-03-11T10:41:53.709Z,9.43
2023-03-11T10:45:01.127Z,8.18
2023-03-11T10:48:15.657Z,12.65
2023-03-11T10:51:29.051Z,6.55
2023-03-11T10:58:14.010Z,5.18
2023-03-11T11:01:22.087Z,7.88
2023-03-11T11:04:47.718Z,3.35
2023-03-11T11:08:22.687Z,3.28
2023-03-11T11:11:31.380Z,2.65
2023-03-11T11:14:48.466Z,1.88
2023-03-11T11:17:58.025Z,3.05
2023-03-11T11:24:45.652Z,6.38
2023-03-11T11:28:01.035Z,3.95
2023-03-11T11:31:22.015Z,4.72
2023-03-11T11:34:33.840Z,2.65
2023-03-11T11:37:48.737Z,4.90
2023-03-11T11:40:56.738Z,4.18
2023-03-11T11:44:07.066Z,8.35
2023-03-11T11:47:22.595Z,3.83
2023-03-11T11:50:34.510Z,4.03
2023-03-11T11:53:47.206Z,2.08
2023-03-11T11:56:51.394Z,5.10
2023-03-11T11:59:57.488Z,6.75
2023-03-11T12:03:57.691Z,1.52
2023-03-11T12:07:49.192Z,2.67
2023-03-11T12:11:42.110Z,1.50
2023-03-11T12:15:07.490Z,4.35
2023-03-11T12:18:42.790Z,4.03
2023-03-11T12:22:20.220Z,3.75
2023-03-11T12:25:39.938Z,5.30
2023-03-11T12:29:26.320Z,3.53
2023-03-11T12:32:56.894Z,2.00
2023-03-11T12:36:03.549Z,4.88
2023-03-11T12:39:29.167Z,3.92
2023-03-11T12:42:41.069Z,3.60
2023-03-11T12:45:55.702Z,2.70
2023-03-11T12:49:15.337Z,4.85
2023-03-11T12:52:24.854Z,2.75
2023-03-11T12:55:36.294Z,6.53
2023-03-11T12:59:07.615Z,3.17
2023-03-11T13:02:51.689Z,1.58
2023-03-11T13:06:15.147Z,3.50
2023-03-11T13:09:19.981Z,2.78
2023-03-11T13:12:47.463Z,2.40
2023-03-11T13:15:56.907Z,1.92
2023-03-11T13:19:27.854Z,5.45
2023-03-11T13:23:01.376Z,3.15
2023-03-11T13:26:40.659Z,3.75
2023-03-11T13:30:06.307Z,4.68
2023-03-11T13:33:19.057Z,8.73
2023-03-11T13:36:57.368Z,5.05
2023-03-11T13:40:23.057Z,7.85
2023-03-11T13:43:28.388Z,2.42
2023-03-11T13:46:39.908Z,8.05
2023-03-11T13:50:10.264Z,3.88
2023-03-11T13:53:31.818Z,6.10
2023-03-11T13:56:46.821Z,6.00
2023-03-11T13:59:54.319Z,3.65
2023-03-11T14:03:21.300Z,5.43
2023-03-11T14:06:31.314Z,6.50
2023-03-11T14:09:35.869Z,1.27
2023-03-11T14:12:40.859Z,2.88
2023-03-11T14:16:35.261Z,5.35
2023-03-11T14:19:40.214Z,2.17
2023-03-11T14:22:55.077Z,5.57
2023-03-11T14:26:10.067Z,6.60
2023-03-11T14:29:21.434Z,3.28
2023-03-11T14:32:30.416Z,2.33
2023-03-11T14:35:39.896Z,7.10
2023-03-11T14:38:49.896Z,3.42
2023-03-11T14:42:23.792Z,3.45
2023-03-11T14:45:40.024Z,6.93
2023-03-11T14:48:47.323Z,5.10
2023-03-11T14:52:10.546Z,3.40
2023-03-11T14:55:38.252Z,1.43
2023-03-11T14:59:07.978Z,6.75
2023-03-11T15:03:12.643Z,4.95
2023-03-11T15:06:29.914Z,8.75
2023-03-11T15:09:43.095Z,6.90
2023-03-11T15:12:51.509Z,5.43
2023-03-11T15:16:36.125Z,4.00
2023-03-11T15:20:08.902Z,5.18
2023-03-11T15:23:27.629Z,7.10
2023-03-11T15:26:49.346Z,9.50
2023-03-11T15:30:07.504Z,5.38
2023-03-11T15:33:39.044Z,8.45
2023-03-11T15:36:57.496Z,4.00
2023-03-11T15:40:38.632Z,9.25
2023-03-11T15:44:13.776Z,9.25
2023-03-11T15:47:23.817Z,8.40
2023-03-11T15:50:46.771Z,6.18
2023-03-11T15:53:56.428Z,10.85
2023-03-11T15:57:08.705Z,4.57
2023-03-11T16:00:24.077Z,6.70
2023-03-11T16:03:32.913Z,7.97
2023-03-11T16:06:37.236Z,9.00
2023-03-11T16:09:42.285Z,11.00
2023-03-11T16:12:47.058Z,9.40
2023-03-11T16:15:52.398Z,7.43
2023-03-11T16:18:57.029Z,6.65
2023-03-11T16:22:02.897Z,5.57
2023-03-11T16:25:22.731Z,10.55
2023-03-11T16:28:32.708Z,16.38
2023-03-11T16:31:39.266Z,8.55
2023-03-11T16:34:45.512Z,9.35
2023-03-11T16:37:50.885Z,12.90
2023-03-11T16:41:02.044Z,23.42
2023-03-11T16:44:09.734Z,48.00
2023-03-11T16:47:18.273Z,38.67
2023-03-11T16:50:24.460Z,39.78
2023-03-11T16:53:29.367Z,40.90
2023-03-11T16:56:41.734Z,14.75
2023-03-11T16:59:46.525Z,6.53
2023-03-11T17:02:51.711Z,20.83
2023-03-11T17:06:03.093Z,11.63
2023-03-11T17:09:07.313Z,8.25
2023-03-11T17:12:15.766Z,8.05
2023-03-11T17:15:20.788Z,9.30
2023-03-11T17:18:27.035Z,9.55
2023-03-11T17:22:03.375Z,6.85
2023-03-11T19:07:04.729Z,19.45
2023-03-11T19:10:10.208Z,20.70
2023-03-11T19:13:19.130Z,6.85
2023-03-11T19:16:26.223Z,7.97
2023-03-11T19:19:31.588Z,12.70
2023-03-11T19:22:36.907Z,8.73
2023-03-11T19:25:44.029Z,14.05
2023-03-11T19:29:00.856Z,8.82
2023-03-11T19:32:05.875Z,10.55
2023-03-11T19:35:14.387Z,10.70
2023-03-11T19:38:19.283Z,12.85
2023-03-11T19:41:23.294Z,15.25
2023-03-11T19:44:27.790Z,6.93
2023-03-11T19:47:32.247Z,5.47
2023-03-11T19:50:36.445Z,19.35
2023-03-11T19:53:41.805Z,8.60
2023-03-11T19:56:46.663Z,6.80
2023-03-11T19:59:51.014Z,22.75
2023-03-11T20:02:56.852Z,9.60
2023-03-11T20:06:06.523Z,12.60
2023-03-11T20:09:11.653Z,10.80
2023-03-11T20:12:16.669Z,15.07
2023-03-11T20:15:21.611Z,13.00
2023-03-11T20:18:25.681Z,9.98
2023-03-11T20:21:30.440Z,13.23
2023-03-11T20:24:34.794Z,11.63
2023-03-11T20:27:39.290Z,12.77
2023-03-11T20:30:43.563Z,21.70
2023-03-11T20:33:49.913Z,9.65
2023-03-11T20:36:54.077Z,7.72
2023-03-11T20:39:58.768Z,12.93
2023-03-11T20:43:03.620Z,9.20
2023-03-11T20:46:09.716Z,13.30
2023-03-11T20:49:14.576Z,12.38
2023-03-11T20:52:19.715Z,45.40
2023-03-11T20:55:24.059Z,33.63
2023-03-11T20:58:28.297Z,9.65
2023-03-11T21:01:34.105Z,8.50
2023-03-11T21:04:41.203Z,12.77
2023-03-11T21:07:48.858Z,12.27
2023-03-11T21:11:00.863Z,12.68
2023-03-11T21:14:07.648Z,14.93
2023-03-11T21:17:12.149Z,14.32
2023-03-11T21:20:17.272Z,9.10
2023-03-11T21:23:21.850Z,10.18
2023-03-11T21:26:26.149Z,6.57
2023-03-11T21:29:30.882Z,16.42
2023-03-11T21:32:35.726Z,9.13
2023-03-11T21:35:40.183Z,11.23
2023-03-11T21:38:47.287Z,11.27
2023-03-11T21:41:53.330Z,13.40
2023-03-11T21:44:58.315Z,11.82
2023-03-11T21:48:06.683Z,11.77
2023-03-11T21:51:11.413Z,13.50
2023-03-11T21:54:15.918Z,14.38
2023-03-11T21:57:20.572Z,20.85
2023-03-11T22:00:25.184Z,11.95
2023-03-11T22:03:30.825Z,6.82
2023-03-11T22:06:35.469Z,3.15
2023-03-11T22:09:40.399Z,10.13
2023-03-11T22:12:45.254Z,8.18
2023-03-11T22:15:50.588Z,13.60
2023-03-11T22:18:55.367Z,11.90
2023-03-11T22:21:59.635Z,8.40
2023-03-11T22:25:05.564Z,8.88
2023-03-11T22:28:12.829Z,11.85
2023-03-11T22:31:18.982Z,18.25
2023-03-11T22:34:23.895Z,13.82
2023-03-11T22:37:28.299Z,8.18
2023-03-11T22:40:35.073Z,10.63
2023-03-11T22:43:39.876Z,18.50
2023-03-11T22:46:44.226Z,7.85
2023-03-11T22:49:48.757Z,9.43
2023-03-11T22:52:53.209Z,9.93
2023-03-11T22:55:57.764Z,12.18
2023-03-11T22:59:02.560Z,10.00
2023-03-11T23:02:06.901Z,11.98
2023-03-11T23:05:13.381Z,14.73
2023-03-11T23:08:18.213Z,11.15
2023-03-11T23:11:23.411Z,13.07
2023-03-11T23:14:37.752Z,15.13
2023-03-11T23:17:46.477Z,8.93
2023-03-11T23:20:50.623Z,5.93
2023-03-11T23:23:56.205Z,8.57
2023-03-11T23:27:00.963Z,10.95
2023-03-11T23:30:06.640Z,12.20
2023-03-11T23:33:10.866Z,8.90
2023-03-11T23:36:21.693Z,14.40
2023-03-11T23:39:25.808Z,7.90
2023-03-11T23:42:34.638Z,3.10
2023-03-11T23:45:39.138Z,3.83
2023-03-11T23:48:43.334Z,6.85
2023-03-11T23:51:47.479Z,7.97
2023-03-11T23:54:52.102Z,12.38
2023-03-11T23:57:56.493Z,5.43
